sensor_id;sensor_type;location;lat;lon;timestamp;P1;durP1;ratioP1;P2;durP2;ratioP2
44658;SDS011;30378;50.186;8.644;2022-09-17T00:01:21;5.43;;;2.13;;
44658;SDS011;30378;50.186;8.644;2022-09-17T00:03:51;7.07;;;1.50;;
44658;SDS011;30378;50.186;8.644;2022-09-17T00:06:21;3.47;;;1.27;;
44658;SDS011;30378;50.186;8.644;2022-09-17T00:08:50;7.82;;;2.38;;
44658;SDS011;30378;50.186;8.644;2022-09-17T00:11:20;6.22;;;1.95;;
44658;SDS011;30378;50.186;8.644;2022-09-17T00:13:52;6.75;;;2.35;;
44658;SDS011;30378;50.186;8.644;2022-09-17T00:16:22;7.53;;;1.98;;
44658;SDS011;30378;50.186;8.644;2022-09-17T00:19:00;6.05;;;1.60;;
44658;SDS011;30378;50.186;8.644;2022-09-17T00:21:28;7.53;;;1.67;;
44658;SDS011;30378;50.186;8.644;2022-09-17T00:23:56;9.40;;;1.85;;
44658;SDS011;30378;50.186;8.644;2022-09-17T00:26:26;7.82;;;2.88;;
44658;SDS011;30378;50.186;8.644;2022-09-17T00:28:54;5.88;;;1.90;;
44658;SDS011;30378;50.186;8.644;2022-09-17T00:31:23;5.80;;;1.98;;
44658;SDS011;30378;50.186;8.644;2022-09-17T00:33:51;6.70;;;1.20;;
44658;SDS011;30378;50.186;8.644;2022-09-17T00:38:53;6.10;;;1.63;;
44658;SDS011;30378;50.186;8.644;2022-09-17T00:41:23;5.82;;;1.55;;
44658;SDS011;30378;50.186;8.644;2022-09-17T00:43:54;5.47;;;1.67;;
44658;SDS011;30378;50.186;8.644;2022-09-17T00:49:22;6.18;;;1.30;;
44658;SDS011;30378;50.186;8.644;2022-09-17T00:51:58;6.13;;;1.35;;
44658;SDS011;30378;50.186;8.644;2022-09-17T00:54:32;6.85;;;1.50;;
44658;SDS011;30378;50.186;8.644;2022-09-17T00:57:00;3.55;;;1.13;;
44658;SDS011;30378;50.186;8.644;2022-09-17T00:59:28;4.95;;;0.90;;
44658;SDS011;30378;50.186;8.644;2022-09-17T01:04:23;5.72;;;1.42;;
44658;SDS011;30378;50.186;8.644;2022-09-17T01:09:38;7.00;;;1.20;;
44658;SDS011;30378;50.186;8.644;2022-09-17T01:33:43;5.55;;;2.00;;
44658;SDS011;30378;50.186;8.644;2022-09-17T01:41:52;3.63;;;1.50;;
44658;SDS011;30378;50.186;8.644;2022-09-17T01:44:49;6.25;;;1.95;;
44658;SDS011;30378;50.186;8.644;2022-09-17T01:47:38;4.38;;;1.80;;
44658;SDS011;30378;50.186;8.644;2022-09-17T01:50:13;4.32;;;1.50;;
44658;SDS011;30378;50.186;8.644;2022-09-17T01:52:45;5.68;;;1.67;;
44658;SDS011;30378;50.186;8.644;2022-09-17T01:55:16;4.38;;;1.83;;
44658;SDS011;30378;50.186;8.644;2022-09-17T02:00:21;6.47;;;1.95;;
44658;SDS011;30378;50.186;8.644;2022-09-17T02:10:33;2.85;;;1.35;;
44658;SDS011;30378;50.186;8.644;2022-09-17T02:13:08;3.88;;;1.42;;
44658;SDS011;30378;50.186;8.644;2022-09-17T02:15:45;4.47;;;1.75;;
44658;SDS011;30378;50.186;8.644;2022-09-17T02:21:21;3.83;;;1.65;;
44658;SDS011;30378;50.186;8.644;2022-09-17T02:26:38;6.10;;;1.70;;
44658;SDS011;30378;50.186;8.644;2022-09-17T02:29:44;5.80;;;1.63;;
44658;SDS011;30378;50.186;8.644;2022-09-17T02:32:08;7.00;;;2.08;;
44658;SDS011;30378;50.186;8.644;2022-09-17T02:34:36;4.45;;;1.58;;
44658;SDS011;30378;50.186;8.644;2022-09-17T02:37:05;5.25;;;1.63;;
44658;SDS011;30378;50.186;8.644;2022-09-17T02:39:33;4.22;;;1.50;;
44658;SDS011;30378;50.186;8.644;2022-09-17T02:44:41;7.43;;;1.55;;
44658;SDS011;30378;50.186;8.644;2022-09-17T02:52:48;5.45;;;1.50;;
44658;SDS011;30378;50.186;8.644;2022-09-17T02:55:41;2.90;;;1.30;;
44658;SDS011;30378;50.186;8.644;2022-09-17T03:00:46;4.15;;;1.48;;
44658;SDS011;30378;50.186;8.644;2022-09-17T03:03:26;5.75;;;1.63;;
44658;SDS011;30378;50.186;8.644;2022-09-17T03:05:59;5.18;;;3.08;;
44658;SDS011;30378;50.186;8.644;2022-09-17T03:08:27;6.35;;;1.65;;
44658;SDS011;30378;50.186;8.644;2022-09-17T03:10:57;5.30;;;1.40;;
44658;SDS011;30378;50.186;8.644;2022-09-17T03:15:51;2.72;;;1.80;;
44658;SDS011;30378;50.186;8.644;2022-09-17T03:18:18;6.95;;;1.70;;
44658;SDS011;30378;50.186;8.644;2022-09-17T03:20:46;4.63;;;1.73;;
44658;SDS011;30378;50.186;8.644;2022-09-17T03:25:40;5.05;;;1.67;;
44658;SDS011;30378;50.186;8.644;2022-09-17T03:28:09;4.35;;;1.35;;
44658;SDS011;30378;50.186;8.644;2022-09-17T03:33:03;8.13;;;1.20;;
44658;SDS011;30378;50.186;8.644;2022-09-17T03:37:57;4.35;;;1.10;;
44658;SDS011;30378;50.186;8.644;2022-09-17T03:42:51;5.03;;;1.38;;
44658;SDS011;30378;50.186;8.644;2022-09-17T03:47:45;2.70;;;0.90;;
44658;SDS011;30378;50.186;8.644;2022-09-17T03:50:12;8.77;;;1.75;;
44658;SDS011;30378;50.186;8.644;2022-09-17T03:55:08;4.40;;;1.13;;
44658;SDS011;30378;50.186;8.644;2022-09-17T04:00:02;6.68;;;1.02;;
44658;SDS011;30378;50.186;8.644;2022-09-17T04:02:37;5.13;;;1.23;;
44658;SDS011;30378;50.186;8.644;2022-09-17T04:05:05;4.18;;;1.30;;
44658;SDS011;30378;50.186;8.644;2022-09-17T04:07:33;6.05;;;1.40;;
44658;SDS011;30378;50.186;8.644;2022-09-17T04:12:27;5.32;;;1.50;;
44658;SDS011;30378;50.186;8.644;2022-09-17T04:14:54;3.35;;;1.70;;
44658;SDS011;30378;50.186;8.644;2022-09-17T04:17:21;3.50;;;0.98;;
44658;SDS011;30378;50.186;8.644;2022-09-17T04:19:48;2.10;;;0.75;;
44658;SDS011;30378;50.186;8.644;2022-09-17T04:24:42;4.03;;;1.10;;
44658;SDS011;30378;50.186;8.644;2022-09-17T04:29:36;2.10;;;0.65;;
44658;SDS011;30378;50.186;8.644;2022-09-17T04:34:30;3.50;;;1.08;;
44658;SDS011;30378;50.186;8.644;2022-09-17T04:36:58;4.85;;;1.17;;
44658;SDS011;30378;50.186;8.644;2022-09-17T04:39:25;2.92;;;1.00;;
44658;SDS011;30378;50.186;8.644;2022-09-17T04:44:20;4.07;;;1.00;;
44658;SDS011;30378;50.186;8.644;2022-09-17T04:49:14;3.05;;;0.73;;
44658;SDS011;30378;50.186;8.644;2022-09-17T04:51:45;9.27;;;1.42;;
44658;SDS011;30378;50.186;8.644;2022-09-17T04:56:40;3.08;;;1.00;;
44658;SDS011;30378;50.186;8.644;2022-09-17T04:59:07;4.93;;;1.02;;
44658;SDS011;30378;50.186;8.644;2022-09-17T05:01:34;5.70;;;0.98;;
44658;SDS011;30378;50.186;8.644;2022-09-17T05:06:29;7.60;;;1.30;;
44658;SDS011;30378;50.186;8.644;2022-09-17T05:08:56;4.25;;;1.27;;
44658;SDS011;30378;50.186;8.644;2022-09-17T05:11:23;6.40;;;1.40;;
44658;SDS011;30378;50.186;8.644;2022-09-17T05:13:50;2.55;;;1.23;;
44658;SDS011;30378;50.186;8.644;2022-09-17T05:16:17;2.65;;;0.88;;
44658;SDS011;30378;50.186;8.644;2022-09-17T05:21:11;5.57;;;0.90;;
44658;SDS011;30378;50.186;8.644;2022-09-17T05:23:38;5.25;;;1.60;;
44658;SDS011;30378;50.186;8.644;2022-09-17T05:28:32;6.45;;;1.52;;
44658;SDS011;30378;50.186;8.644;2022-09-17T05:31:00;6.70;;;1.23;;
44658;SDS011;30378;50.186;8.644;2022-09-17T05:33:28;3.92;;;1.27;;
44658;SDS011;30378;50.186;8.644;2022-09-17T05:38:21;5.45;;;1.08;;
44658;SDS011;30378;50.186;8.644;2022-09-17T05:40:49;3.45;;;1.00;;
44658;SDS011;30378;50.186;8.644;2022-09-17T05:45:43;5.45;;;1.27;;
44658;SDS011;30378;50.186;8.644;2022-09-17T05:48:11;5.60;;;1.40;;
44658;SDS011;30378;50.186;8.644;2022-09-17T05:50:39;5.35;;;1.80;;
44658;SDS011;30378;50.186;8.644;2022-09-17T05:53:09;3.58;;;1.40;;
44658;SDS011;30378;50.186;8.644;2022-09-17T05:55:39;4.40;;;1.52;;
44658;SDS011;30378;50.186;8.644;2022-09-17T05:58:10;12.95;;;2.00;;
44658;SDS011;30378;50.186;8.644;2022-09-17T06:00:45;4.63;;;1.70;;
44658;SDS011;30378;50.186;8.644;2022-09-17T06:03:15;3.63;;;1.80;;
44658;SDS011;30378;50.186;8.644;2022-09-17T06:05:44;7.18;;;1.70;;
44658;SDS011;30378;50.186;8.644;2022-09-17T06:08:19;10.63;;;2.03;;
44658;SDS011;30378;50.186;8.644;2022-09-17T06:10:46;4.38;;;1.80;;
44658;SDS011;30378;50.186;8.644;2022-09-17T06:13:14;5.95;;;1.52;;
44658;SDS011;30378;50.186;8.644;2022-09-17T06:15:47;5.15;;;1.42;;
44658;SDS011;30378;50.186;8.644;2022-09-17T06:18:16;4.05;;;1.73;;
44658;SDS011;30378;50.186;8.644;2022-09-17T06:20:53;5.95;;;1.58;;
44658;SDS011;30378;50.186;8.644;2022-09-17T06:23:21;5.30;;;1.58;;
44658;SDS011;30378;50.186;8.644;2022-09-17T06:25:58;9.25;;;2.03;;
44658;SDS011;30378;50.186;8.644;2022-09-17T06:28:26;8.07;;;1.70;;
44658;SDS011;30378;50.186;8.644;2022-09-17T06:30:54;7.25;;;1.45;;
44658;SDS011;30378;50.186;8.644;2022-09-17T06:33:26;7.28;;;1.50;;
44658;SDS011;30378;50.186;8.644;2022-09-17T06:35:56;5.38;;;1.40;;
44658;SDS011;30378;50.186;8.644;2022-09-17T06:38:26;4.60;;;1.73;;
44658;SDS011;30378;50.186;8.644;2022-09-17T06:40:57;4.20;;;1.42;;
44658;SDS011;30378;50.186;8.644;2022-09-17T06:43:24;4.13;;;1.27;;
44658;SDS011;30378;50.186;8.644;2022-09-17T06:48:37;4.90;;;1.45;;
44658;SDS011;30378;50.186;8.644;2022-09-17T06:51:05;7.63;;;2.85;;
44658;SDS011;30378;50.186;8.644;2022-09-17T06:53:34;3.95;;;1.38;;
44658;SDS011;30378;50.186;8.644;2022-09-17T06:56:03;5.38;;;1.33;;
44658;SDS011;30378;50.186;8.644;2022-09-17T06:58:32;4.57;;;1.92;;
44658;SDS011;30378;50.186;8.644;2022-09-17T07:01:03;3.25;;;1.55;;
44658;SDS011;30378;50.186;8.644;2022-09-17T07:03:31;5.55;;;1.70;;
44658;SDS011;30378;50.186;8.644;2022-09-17T07:05:59;4.95;;;1.27;;
44658;SDS011;30378;50.186;8.644;2022-09-17T07:08:26;3.65;;;1.20;;
44658;SDS011;30378;50.186;8.644;2022-09-17T07:10:54;6.43;;;1.65;;
44658;SDS011;30378;50.186;8.644;2022-09-17T07:13:22;5.13;;;1.90;;
44658;SDS011;30378;50.186;8.644;2022-09-17T07:15:53;4.47;;;1.60;;
44658;SDS011;30378;50.186;8.644;2022-09-17T07:18:22;7.43;;;1.50;;
44658;SDS011;30378;50.186;8.644;2022-09-17T07:20:56;6.00;;;1.88;;
44658;SDS011;30378;50.186;8.644;2022-09-17T07:23:31;6.05;;;2.53;;
44658;SDS011;30378;50.186;8.644;2022-09-17T07:26:01;6.93;;;1.30;;
44658;SDS011;30378;50.186;8.644;2022-09-17T07:28:33;4.95;;;1.70;;
44658;SDS011;30378;50.186;8.644;2022-09-17T07:31:03;7.15;;;2.35;;
44658;SDS011;30378;50.186;8.644;2022-09-17T07:33:31;4.63;;;1.30;;
44658;SDS011;30378;50.186;8.644;2022-09-17T07:36:01;4.60;;;1.23;;
44658;SDS011;30378;50.186;8.644;2022-09-17T07:38:33;5.30;;;1.55;;
44658;SDS011;30378;50.186;8.644;2022-09-17T07:41:01;6.35;;;1.65;;
44658;SDS011;30378;50.186;8.644;2022-09-17T07:43:31;7.20;;;1.55;;
44658;SDS011;30378;50.186;8.644;2022-09-17T07:46:00;5.97;;;1.15;;
44658;SDS011;30378;50.186;8.644;2022-09-17T07:48:29;4.45;;;2.10;;
44658;SDS011;30378;50.186;8.644;2022-09-17T07:50:57;5.32;;;1.35;;
44658;SDS011;30378;50.186;8.644;2022-09-17T07:53:24;6.82;;;1.40;;
44658;SDS011;30378;50.186;8.644;2022-09-17T07:55:56;7.22;;;2.88;;
44658;SDS011;30378;50.186;8.644;2022-09-17T07:58:28;6.50;;;1.50;;
44658;SDS011;30378;50.186;8.644;2022-09-17T08:01:00;5.57;;;2.22;;
44658;SDS011;30378;50.186;8.644;2022-09-17T08:03:33;8.80;;;1.50;;
44658;SDS011;30378;50.186;8.644;2022-09-17T08:06:03;4.85;;;1.58;;
44658;SDS011;30378;50.186;8.644;2022-09-17T08:08:32;4.03;;;1.25;;
44658;SDS011;30378;50.186;8.644;2022-09-17T08:11:02;8.07;;;1.50;;
44658;SDS011;30378;50.186;8.644;2022-09-17T08:13:31;5.03;;;1.20;;
44658;SDS011;30378;50.186;8.644;2022-09-17T08:15:59;5.10;;;1.38;;
44658;SDS011;30378;50.186;8.644;2022-09-17T08:18:27;3.60;;;1.10;;
44658;SDS011;30378;50.186;8.644;2022-09-17T08:20:56;6.47;;;1.27;;
44658;SDS011;30378;50.186;8.644;2022-09-17T08:23:27;3.33;;;1.30;;
44658;SDS011;30378;50.186;8.644;2022-09-17T08:25:55;4.75;;;1.23;;
44658;SDS011;30378;50.186;8.644;2022-09-17T08:28:25;4.85;;;1.75;;
44658;SDS011;30378;50.186;8.644;2022-09-17T08:30:53;5.63;;;1.88;;
44658;SDS011;30378;50.186;8.644;2022-09-17T08:33:21;3.13;;;0.93;;
44658;SDS011;30378;50.186;8.644;2022-09-17T08:35:54;5.57;;;1.67;;
44658;SDS011;30378;50.186;8.644;2022-09-17T08:38:28;4.15;;;1.40;;
44658;SDS011;30378;50.186;8.644;2022-09-17T08:43:49;4.10;;;1.55;;
44658;SDS011;30378;50.186;8.644;2022-09-17T08:46:18;3.80;;;1.73;;
44658;SDS011;30378;50.186;8.644;2022-09-17T08:48:51;4.13;;;0.70;;
44658;SDS011;30378;50.186;8.644;2022-09-17T08:51:42;4.43;;;1.50;;
44658;SDS011;30378;50.186;8.644;2022-09-17T09:05:43;4.57;;;1.08;;
44658;SDS011;30378;50.186;8.644;2022-09-17T09:10:52;2.50;;;1.48;;
44658;SDS011;30378;50.186;8.644;2022-09-17T09:13:30;2.80;;;1.40;;
44658;SDS011;30378;50.186;8.644;2022-09-17T09:16:02;3.63;;;0.70;;
44658;SDS011;30378;50.186;8.644;2022-09-17T09:18:34;2.78;;;1.33;;
44658;SDS011;30378;50.186;8.644;2022-09-17T09:23:51;4.05;;;2.15;;
44658;SDS011;30378;50.186;8.644;2022-09-17T09:26:36;2.42;;;0.90;;
44658;SDS011;30378;50.186;8.644;2022-09-17T09:35:01;3.80;;;1.27;;
44658;SDS011;30378;50.186;8.644;2022-09-17T09:37:40;3.10;;;1.45;;
44658;SDS011;30378;50.186;8.644;2022-09-17T09:42:58;4.70;;;2.13;;
44658;SDS011;30378;50.186;8.644;2022-09-17T09:48:18;4.38;;;1.08;;
44658;SDS011;30378;50.186;8.644;2022-09-17T09:56:23;6.38;;;2.33;;
44658;SDS011;30378;50.186;8.644;2022-09-17T09:59:00;4.90;;;0.95;;
44658;SDS011;30378;50.186;8.644;2022-09-17T10:01:29;4.43;;;1.40;;
44658;SDS011;30378;50.186;8.644;2022-09-17T10:04:39;3.85;;;1.10;;
44658;SDS011;30378;50.186;8.644;2022-09-17T10:07:06;4.28;;;1.80;;
44658;SDS011;30378;50.186;8.644;2022-09-17T10:09:36;5.50;;;1.10;;
44658;SDS011;30378;50.186;8.644;2022-09-17T10:12:14;4.22;;;1.00;;
44658;SDS011;30378;50.186;8.644;2022-09-17T10:14:43;4.97;;;0.93;;
44658;SDS011;30378;50.186;8.644;2022-09-17T10:17:24;4.10;;;1.73;;
44658;SDS011;30378;50.186;8.644;2022-09-17T10:22:27;3.15;;;1.33;;
44658;SDS011;30378;50.186;8.644;2022-09-17T10:25:06;3.55;;;0.73;;
44658;SDS011;30378;50.186;8.644;2022-09-17T10:27:52;2.35;;;0.70;;
44658;SDS011;30378;50.186;8.644;2022-09-17T10:30:21;4.18;;;0.80;;
44658;SDS011;30378;50.186;8.644;2022-09-17T10:33:09;3.17;;;0.43;;
44658;SDS011;30378;50.186;8.644;2022-09-17T10:38:33;4.97;;;0.60;;
44658;SDS011;30378;50.186;8.644;2022-09-17T10:41:20;2.45;;;0.68;;
44658;SDS011;30378;50.186;8.644;2022-09-17T10:43:50;3.22;;;1.05;;
44658;SDS011;30378;50.186;8.644;2022-09-17T10:46:19;2.97;;;1.35;;
44658;SDS011;30378;50.186;8.644;2022-09-17T10:49:09;4.20;;;1.00;;
44658;SDS011;30378;50.186;8.644;2022-09-17T10:51:44;3.50;;;1.77;;
44658;SDS011;30378;50.186;8.644;2022-09-17T10:56:39;6.05;;;0.82;;
44658;SDS011;30378;50.186;8.644;2022-09-17T10:59:28;2.50;;;1.15;;
44658;SDS011;30378;50.186;8.644;2022-09-17T11:07:53;6.88;;;1.30;;
44658;SDS011;30378;50.186;8.644;2022-09-17T11:11:09;4.53;;;2.15;;
44658;SDS011;30378;50.186;8.644;2022-09-17T11:16:26;5.50;;;0.70;;
44658;SDS011;30378;50.186;8.644;2022-09-17T11:19:07;5.32;;;0.90;;
44658;SDS011;30378;50.186;8.644;2022-09-17T11:30:12;3.63;;;0.55;;
44658;SDS011;30378;50.186;8.644;2022-09-17T11:35:22;2.10;;;0.40;;
44658;SDS011;30378;50.186;8.644;2022-09-17T11:38:16;3.22;;;0.70;;
44658;SDS011;30378;50.186;8.644;2022-09-17T11:40:44;2.80;;;0.40;;
44658;SDS011;30378;50.186;8.644;2022-09-17T11:43:27;3.20;;;0.30;;
44658;SDS011;30378;50.186;8.644;2022-09-17T11:48:35;4.75;;;0.98;;
44658;SDS011;30378;50.186;8.644;2022-09-17T11:56:37;2.00;;;0.40;;
44658;SDS011;30378;50.186;8.644;2022-09-17T12:02:01;1.35;;;0.32;;
44658;SDS011;30378;50.186;8.644;2022-09-17T12:05:10;1.25;;;0.30;;
44658;SDS011;30378;50.186;8.644;2022-09-17T12:10:48;2.83;;;0.20;;
44658;SDS011;30378;50.186;8.644;2022-09-17T12:13:26;4.13;;;0.20;;
44658;SDS011;30378;50.186;8.644;2022-09-17T12:16:12;1.83;;;0.20;;
44658;SDS011;30378;50.186;8.644;2022-09-17T12:21:28;3.28;;;0.60;;
44658;SDS011;30378;50.186;8.644;2022-09-17T12:27:02;1.48;;;0.20;;
44658;SDS011;30378;50.186;8.644;2022-09-17T12:30:02;2.60;;;0.20;;
44658;SDS011;30378;50.186;8.644;2022-09-17T12:38:43;3.28;;;1.02;;
44658;SDS011;30378;50.186;8.644;2022-09-17T12:41:21;2.42;;;0.30;;
44658;SDS011;30378;50.186;8.644;2022-09-17T12:46:48;1.98;;;0.28;;
44658;SDS011;30378;50.186;8.644;2022-09-17T12:49:50;4.03;;;0.45;;
44658;SDS011;30378;50.186;8.644;2022-09-17T12:58:40;3.08;;;0.30;;
44658;SDS011;30378;50.186;8.644;2022-09-17T13:01:22;2.30;;;0.20;;
44658;SDS011;30378;50.186;8.644;2022-09-17T13:03:57;2.92;;;0.45;;
44658;SDS011;30378;50.186;8.644;2022-09-17T13:09:58;1.55;;;0.25;;
44658;SDS011;30378;50.186;8.644;2022-09-17T13:17:59;3.15;;;0.63;;
44658;SDS011;30378;50.186;8.644;2022-09-17T13:23:28;1.75;;;0.57;;
44658;SDS011;30378;50.186;8.644;2022-09-17T13:25:59;1.15;;;0.30;;
44658;SDS011;30378;50.186;8.644;2022-09-17T13:28:49;3.42;;;0.60;;
44658;SDS011;30378;50.186;8.644;2022-09-17T13:32:03;1.58;;;0.20;;
44658;SDS011;30378;50.186;8.644;2022-09-17T13:39:31;2.55;;;0.80;;
44658;SDS011;30378;50.186;8.644;2022-09-17T13:42:09;3.45;;;0.50;;
44658;SDS011;30378;50.186;8.644;2022-09-17T13:44:39;2.65;;;0.30;;
44658;SDS011;30378;50.186;8.644;2022-09-17T13:47:13;2.20;;;0.43;;
44658;SDS011;30378;50.186;8.644;2022-09-17T13:49:52;2.35;;;0.57;;
44658;SDS011;30378;50.186;8.644;2022-09-17T13:52:41;3.63;;;0.52;;
44658;SDS011;30378;50.186;8.644;2022-09-17T13:58:07;3.83;;;0.52;;
44658;SDS011;30378;50.186;8.644;2022-09-17T14:03:45;0.35;;;0.10;;
44658;SDS011;30378;50.186;8.644;2022-09-17T14:08:47;2.70;;;0.73;;
44658;SDS011;30378;50.186;8.644;2022-09-17T14:13:53;2.25;;;0.60;;
44658;SDS011;30378;50.186;8.644;2022-09-17T14:21:25;3.35;;;0.50;;
44658;SDS011;30378;50.186;8.644;2022-09-17T14:23:57;0.60;;;0.17;;
44658;SDS011;30378;50.186;8.644;2022-09-17T14:26:51;1.95;;;0.20;;
44658;SDS011;30378;50.186;8.644;2022-09-17T14:31:56;2.20;;;0.60;;
44658;SDS011;30378;50.186;8.644;2022-09-17T14:34:24;1.52;;;0.20;;
44658;SDS011;30378;50.186;8.644;2022-09-17T14:36:53;3.40;;;0.28;;
44658;SDS011;30378;50.186;8.644;2022-09-17T14:39:35;1.27;;;0.20;;
44658;SDS011;30378;50.186;8.644;2022-09-17T14:42:09;2.40;;;0.28;;
44658;SDS011;30378;50.186;8.644;2022-09-17T14:44:54;2.97;;;0.32;;
44658;SDS011;30378;50.186;8.644;2022-09-17T14:47:27;0.43;;;0.17;;
44658;SDS011;30378;50.186;8.644;2022-09-17T14:49:54;0.90;;;0.50;;
44658;SDS011;30378;50.186;8.644;2022-09-17T14:52:48;2.20;;;0.10;;
44658;SDS011;30378;50.186;8.644;2022-09-17T14:55:21;0.75;;;0.10;;
44658;SDS011;30378;50.186;8.644;2022-09-17T14:57:54;0.40;;;0.10;;
44658;SDS011;30378;50.186;8.644;2022-09-17T15:00:23;0.80;;;0.10;;
44658;SDS011;30378;50.186;8.644;2022-09-17T15:03:01;0.85;;;0.30;;
44658;SDS011;30378;50.186;8.644;2022-09-17T15:05:30;0.90;;;0.10;;
44658;SDS011;30378;50.186;8.644;2022-09-17T15:08:33;1.27;;;0.17;;
44658;SDS011;30378;50.186;8.644;2022-09-17T15:11:02;2.10;;;0.63;;
44658;SDS011;30378;50.186;8.644;2022-09-17T15:13:41;3.28;;;0.20;;
44658;SDS011;30378;50.186;8.644;2022-09-17T15:16:22;1.60;;;0.20;;
44658;SDS011;30378;50.186;8.644;2022-09-17T15:18:59;2.03;;;0.45;;
44658;SDS011;30378;50.186;8.644;2022-09-17T15:23:57;2.55;;;0.30;;
44658;SDS011;30378;50.186;8.644;2022-09-17T15:26:47;2.05;;;1.05;;
44658;SDS011;30378;50.186;8.644;2022-09-17T15:29:17;2.20;;;0.10;;
44658;SDS011;30378;50.186;8.644;2022-09-17T15:31:48;1.67;;;0.20;;
44658;SDS011;30378;50.186;8.644;2022-09-17T15:34:15;0.80;;;0.20;;
44658;SDS011;30378;50.186;8.644;2022-09-17T15:37:43;1.30;;;0.10;;
44658;SDS011;30378;50.186;8.644;2022-09-17T15:39:47;0.98;;;0.20;;
44658;SDS011;30378;50.186;8.644;2022-09-17T15:42:17;1.05;;;0.45;;
44658;SDS011;30378;50.186;8.644;2022-09-17T15:44:45;1.17;;;0.65;;
44658;SDS011;30378;50.186;8.644;2022-09-17T15:50:09;0.70;;;0.10;;
44658;SDS011;30378;50.186;8.644;2022-09-17T15:52:57;1.60;;;0.10;;
44658;SDS011;30378;50.186;8.644;2022-09-17T15:55:39;1.70;;;0.20;;
44658;SDS011;30378;50.186;8.644;2022-09-17T15:58:22;0.77;;;0.20;;
44658;SDS011;30378;50.186;8.644;2022-09-17T16:08:44;0.88;;;0.32;;
44658;SDS011;30378;50.186;8.644;2022-09-17T16:11:16;0.50;;;0.40;;
44658;SDS011;30378;50.186;8.644;2022-09-17T16:13:45;0.45;;;0.10;;
44658;SDS011;30378;50.186;8.644;2022-09-17T16:16:14;1.08;;;0.47;;
44658;SDS011;30378;50.186;8.644;2022-09-17T16:18:43;1.08;;;0.10;;
44658;SDS011;30378;50.186;8.644;2022-09-17T16:21:14;0.22;;;0.08;;
44658;SDS011;30378;50.186;8.644;2022-09-17T16:23:42;0.82;;;0.65;;
44658;SDS011;30378;50.186;8.644;2022-09-17T16:26:11;1.20;;;0.47;;
44658;SDS011;30378;50.186;8.644;2022-09-17T16:28:41;0.57;;;0.10;;
44658;SDS011;30378;50.186;8.644;2022-09-17T16:31:11;1.10;;;0.38;;
44658;SDS011;30378;50.186;8.644;2022-09-17T16:33:40;1.67;;;0.20;;
44658;SDS011;30378;50.186;8.644;2022-09-17T16:36:07;1.25;;;0.20;;
44658;SDS011;30378;50.186;8.644;2022-09-17T16:38:34;2.45;;;0.40;;
44658;SDS011;30378;50.186;8.644;2022-09-17T16:41:03;1.15;;;0.10;;
44658;SDS011;30378;50.186;8.644;2022-09-17T16:43:31;0.77;;;0.28;;
44658;SDS011;30378;50.186;8.644;2022-09-17T16:46:00;1.80;;;0.65;;
44658;SDS011;30378;50.186;8.644;2022-09-17T16:48:31;0.95;;;0.10;;
44658;SDS011;30378;50.186;8.644;2022-09-17T16:50:59;2.80;;;0.10;;
44658;SDS011;30378;50.186;8.644;2022-09-17T16:53:27;1.60;;;0.10;;
44658;SDS011;30378;50.186;8.644;2022-09-17T16:55:54;3.05;;;0.68;;
44658;SDS011;30378;50.186;8.644;2022-09-17T16:58:21;2.65;;;0.30;;
44658;SDS011;30378;50.186;8.644;2022-09-17T17:00:49;1.58;;;0.35;;
44658;SDS011;30378;50.186;8.644;2022-09-17T17:05:42;4.70;;;0.32;;
44658;SDS011;30378;50.186;8.644;2022-09-17T17:10:36;0.90;;;0.22;;
44658;SDS011;30378;50.186;8.644;2022-09-17T17:13:04;2.10;;;0.15;;
44658;SDS011;30378;50.186;8.644;2022-09-17T17:15:32;0.77;;;0.60;;
44658;SDS011;30378;50.186;8.644;2022-09-17T17:17:59;0.88;;;0.20;;
44658;SDS011;30378;50.186;8.644;2022-09-17T17:20:28;1.42;;;0.13;;
44658;SDS011;30378;50.186;8.644;2022-09-17T17:22:56;1.35;;;0.28;;
44658;SDS011;30378;50.186;8.644;2022-09-17T17:25:23;0.35;;;0.17;;
44658;SDS011;30378;50.186;8.644;2022-09-17T17:30:17;1.67;;;0.30;;
44658;SDS011;30378;50.186;8.644;2022-09-17T17:32:47;0.68;;;0.22;;
44658;SDS011;30378;50.186;8.644;2022-09-17T17:35:17;0.35;;;0.10;;
44658;SDS011;30378;50.186;8.644;2022-09-17T17:37:45;1.05;;;0.20;;
44658;SDS011;30378;50.186;8.644;2022-09-17T17:40:13;1.60;;;0.28;;
44658;SDS011;30378;50.186;8.644;2022-09-17T17:45:09;0.60;;;0.13;;
44658;SDS011;30378;50.186;8.644;2022-09-17T17:50:03;3.55;;;0.50;;
44658;SDS011;30378;50.186;8.644;2022-09-17T17:52:31;1.33;;;0.50;;
44658;SDS011;30378;50.186;8.644;2022-09-17T17:54:58;1.00;;;0.22;;
44658;SDS011;30378;50.186;8.644;2022-09-17T17:57:25;2.13;;;0.15;;
44658;SDS011;30378;50.186;8.644;2022-09-17T17:59:52;3.17;;;0.30;;
44658;SDS011;30378;50.186;8.644;2022-09-17T18:04:46;0.50;;;0.10;;
44658;SDS011;30378;50.186;8.644;2022-09-17T18:07:13;2.72;;;0.32;;
44658;SDS011;30378;50.186;8.644;2022-09-17T18:12:07;1.05;;;0.20;;
44658;SDS011;30378;50.186;8.644;2022-09-17T18:14:34;0.80;;;0.40;;
44658;SDS011;30378;50.186;8.644;2022-09-17T18:17:01;1.30;;;0.32;;
44658;SDS011;30378;50.186;8.644;2022-09-17T18:21:55;2.08;;;0.30;;
44658;SDS011;30378;50.186;8.644;2022-09-17T18:24:22;0.88;;;0.13;;
44658;SDS011;30378;50.186;8.644;2022-09-17T18:26:50;1.85;;;0.35;;
44658;SDS011;30378;50.186;8.644;2022-09-17T18:29:17;1.10;;;0.20;;
44658;SDS011;30378;50.186;8.644;2022-09-17T18:34:13;2.78;;;0.20;;
44658;SDS011;30378;50.186;8.644;2022-09-17T18:36:41;0.57;;;0.10;;
44658;SDS011;30378;50.186;8.644;2022-09-17T18:39:12;1.17;;;0.50;;
44658;SDS011;30378;50.186;8.644;2022-09-17T18:42:00;2.03;;;0.55;;
44658;SDS011;30378;50.186;8.644;2022-09-17T18:44:27;3.08;;;0.20;;
44658;SDS011;30378;50.186;8.644;2022-09-17T18:49:21;2.90;;;0.45;;
44658;SDS011;30378;50.186;8.644;2022-09-17T18:51:48;2.63;;;0.40;;
44658;SDS011;30378;50.186;8.644;2022-09-17T18:54:15;4.07;;;0.50;;
44658;SDS011;30378;50.186;8.644;2022-09-17T18:59:09;3.30;;;0.40;;
44658;SDS011;30378;50.186;8.644;2022-09-17T19:01:37;2.67;;;0.73;;
44658;SDS011;30378;50.186;8.644;2022-09-17T19:06:33;0.95;;;0.25;;
44658;SDS011;30378;50.186;8.644;2022-09-17T19:09:00;1.45;;;0.43;;
44658;SDS011;30378;50.186;8.644;2022-09-17T19:11:32;1.55;;;0.28;;
44658;SDS011;30378;50.186;8.644;2022-09-17T19:14:01;2.10;;;0.40;;
44658;SDS011;30378;50.186;8.644;2022-09-17T19:18:55;3.50;;;0.50;;
44658;SDS011;30378;50.186;8.644;2022-09-17T19:21:22;2.10;;;0.30;;
44658;SDS011;30378;50.186;8.644;2022-09-17T19:23:50;5.30;;;0.50;;
44658;SDS011;30378;50.186;8.644;2022-09-17T19:26:24;1.80;;;0.30;;
44658;SDS011;30378;50.186;8.644;2022-09-17T19:28:53;2.50;;;0.38;;
44658;SDS011;30378;50.186;8.644;2022-09-17T19:31:21;1.67;;;0.40;;
44658;SDS011;30378;50.186;8.644;2022-09-17T19:33:49;2.25;;;0.32;;
44658;SDS011;30378;50.186;8.644;2022-09-17T19:36:18;2.25;;;0.50;;
44658;SDS011;30378;50.186;8.644;2022-09-17T19:38:46;5.28;;;0.60;;
44658;SDS011;30378;50.186;8.644;2022-09-17T19:41:15;3.03;;;0.45;;
44658;SDS011;30378;50.186;8.644;2022-09-17T19:43:44;2.22;;;0.45;;
44658;SDS011;30378;50.186;8.644;2022-09-17T19:48:43;3.13;;;0.40;;
44658;SDS011;30378;50.186;8.644;2022-09-17T19:51:11;5.88;;;0.60;;
44658;SDS011;30378;50.186;8.644;2022-09-17T19:53:38;3.55;;;0.52;;
44658;SDS011;30378;50.186;8.644;2022-09-17T19:56:06;2.80;;;0.80;;
44658;SDS011;30378;50.186;8.644;2022-09-17T19:58:36;1.48;;;0.40;;
44658;SDS011;30378;50.186;8.644;2022-09-17T20:01:10;4.05;;;0.52;;
44658;SDS011;30378;50.186;8.644;2022-09-17T20:03:39;3.17;;;0.60;;
44658;SDS011;30378;50.186;8.644;2022-09-17T20:06:08;2.03;;;0.40;;
44658;SDS011;30378;50.186;8.644;2022-09-17T20:08:47;2.47;;;0.47;;
44658;SDS011;30378;50.186;8.644;2022-09-17T20:11:20;1.85;;;0.32;;
44658;SDS011;30378;50.186;8.644;2022-09-17T20:13:49;4.60;;;0.40;;
44658;SDS011;30378;50.186;8.644;2022-09-17T20:16:17;3.28;;;0.90;;